Terminal Aerodrome Forecast
Issued by NWS Portland, OR

Home | Current Version | Previous Version | Text Only | Print | Product List | Glossary On
Versions: 1 2 3 4 5 6 7 8 9 10 11 12 13 14 15 16 17 18 19 20 21 22 23
000
FTUS46 KPQR 181410 AAA
TAFHIO
TAF AMD
KHIO 181410Z 1814/1912 18008KT P6SM VCSH OVC012
     FM182100 18004KT 6SM -RA BR OVC025
     FM190400 18004KT P6SM OVC035
     FM190900 17009KT P6SM -RA OVC030=

USA.gov is the U.S. government's official web portal to all federal, state and local government web resources and services.